Time;durP1;ratioP1;P1;durP2;ratioP2;P2;SDS_P1;SDS_P2;PMS_P1;PMS_P2;Temp;Humidity;BMP_temperature;BMP_pressure;BME280_temperature;BME280_humidity;BME280_pressure;Samples;Min_cycle;Max_cycle;Signal;HPM_P1;HPM_P2
2022/03/26 00:02:10;;;;;;;46.47;24.05;;;;;;;8.52;63.99;103022.53;5038149;28;20033;-59
2022/03/26 00:04:35;;;;;;;44.75;23.55;;;;;;;8.45;64.00;103021.47;5037493;28;20118;-58
2022/03/26 00:07:00;;;;;;;42.35;23.55;;;;;;;8.45;64.95;103021.47;5037566;28;20334;-59
2022/03/26 00:09:26;;;;;;;38.22;21.42;;;;;;;8.45;65.06;103017.97;5038030;28;20329;-58
2022/03/26 00:11:51;;;;;;;41.40;23.02;;;;;;;8.43;65.08;103023.16;5037837;28;20030;-59
2022/03/26 00:14:16;;;;;;;42.20;22.98;;;;;;;8.38;64.99;103017.78;5037638;28;20029;-58
2022/03/26 00:16:41;;;;;;;40.85;23.27;;;;;;;8.32;65.13;103014.09;5037468;28;20029;-59
2022/03/26 00:19:07;;;;;;;41.22;23.25;;;;;;;8.29;64.85;103012.25;5037463;28;20025;-58
2022/03/26 00:21:32;;;;;;;44.30;24.05;;;;;;;8.30;65.47;103018.38;5037186;28;20053;-59
2022/03/26 00:23:58;;;;;;;42.42;23.63;;;;;;;8.32;65.34;103016.69;5037503;28;20040;-58
2022/03/26 00:26:23;;;;;;;41.22;23.92;;;;;;;8.26;65.50;103006.06;5037326;28;20033;-58
2022/03/26 00:28:48;;;;;;;41.40;23.60;;;;;;;8.25;65.82;103013.00;5037407;28;20029;-59
2022/03/26 00:31:14;;;;;;;42.45;23.77;;;;;;;8.21;65.40;103005.91;5037280;28;20580;-59
2022/03/26 00:33:40;;;;;;;43.67;23.55;;;;;;;8.14;66.07;103006.53;5037177;28;20033;-58
2022/03/26 00:36:06;;;;;;;45.08;23.33;;;;;;;8.13;66.01;103006.53;5037771;28;20032;-58
2022/03/26 00:38:31;;;;;;;43.83;23.30;;;;;;;7.99;66.34;103008.69;5037356;28;20030;-59
2022/03/26 00:40:56;;;;;;;44.63;23.73;;;;;;;7.99;66.41;103009.56;5037158;28;20178;-58
2022/03/26 00:43:22;;;;;;;45.13;24.00;;;;;;;7.91;66.31;103010.16;5037156;28;20051;-59
2022/03/26 00:45:47;;;;;;;44.08;23.80;;;;;;;7.88;66.32;103015.28;5037046;28;20431;-58
2022/03/26 00:48:12;;;;;;;43.25;24.17;;;;;;;7.81;66.40;103011.56;5037145;28;20029;-59
2022/03/26 00:50:37;;;;;;;45.33;24.83;;;;;;;7.74;67.11;102999.19;5037169;28;20033;-59
2022/03/26 00:53:03;;;;;;;40.28;23.85;;;;;;;7.87;67.20;103019.59;5036844;28;20383;-59
2022/03/26 00:55:29;;;;;;;45.10;24.65;;;;;;;7.86;67.58;103017.84;5036867;28;20096;-58
2022/03/26 00:57:54;;;;;;;47.17;24.63;;;;;;;7.81;66.68;103016.78;5036919;28;20145;-58
2022/03/26 01:00:20;;;;;;;43.65;23.55;;;;;;;7.75;66.82;103019.22;5036666;28;20124;-59
2022/03/26 01:02:45;;;;;;;38.65;23.08;;;;;;;7.60;67.33;103016.09;5035731;28;20385;-58
2022/03/26 01:05:11;;;;;;;47.22;24.52;;;;;;;7.58;67.84;103029.06;5036581;28;20417;-59
2022/03/26 01:07:36;;;;;;;37.75;22.10;;;;;;;7.60;68.35;103023.91;5036626;28;20112;-59
2022/03/26 01:10:04;;;;;;;43.83;24.25;;;;;;;7.58;67.66;103010.84;5036175;28;20042;-59
2022/03/26 01:12:30;;;;;;;43.50;24.27;;;;;;;7.46;67.21;103019.94;5036792;28;20037;-59
2022/03/26 01:14:55;;;;;;;39.33;23.90;;;;;;;7.45;68.23;103011.22;5036433;28;20036;-58
2022/03/26 01:17:21;;;;;;;42.45;23.38;;;;;;;7.31;68.70;103000.34;5036318;28;20109;-58
2022/03/26 01:19:46;;;;;;;44.00;24.02;;;;;;;7.39;68.69;103008.44;5036307;28;20424;-60
2022/03/26 01:22:11;;;;;;;42.95;24.05;;;;;;;7.37;68.04;103010.09;5036643;28;20045;-59
2022/03/26 01:24:37;;;;;;;44.10;23.42;;;;;;;7.39;68.73;103010.16;5036224;28;20026;-58
2022/03/26 01:27:03;;;;;;;40.90;22.73;;;;;;;7.35;69.36;103009.16;5036540;28;20485;-58
2022/03/26 01:29:28;;;;;;;46.03;24.42;;;;;;;7.29;69.20;103015.03;5036115;28;20440;-58
2022/03/26 01:31:54;;;;;;;43.70;23.48;;;;;;;7.31;69.16;103009.88;5036089;28;20052;-59
2022/03/26 01:34:19;;;;;;;47.20;24.60;;;;;;;7.26;68.34;103009.75;5035137;28;20142;-58
2022/03/26 01:36:45;;;;;;;45.65;24.10;;;;;;;7.18;68.80;103007.69;5036224;28;20029;-58
2022/03/26 01:39:10;;;;;;;43.70;23.90;;;;;;;7.10;69.66;103001.34;5036103;28;20033;-58
2022/03/26 01:41:35;;;;;;;46.40;24.02;;;;;;;7.08;70.00;103003.88;5036057;28;20045;-59
2022/03/26 01:44:01;;;;;;;41.72;23.70;;;;;;;7.13;69.86;103012.72;5035812;28;20048;-59
2022/03/26 01:46:27;;;;;;;45.92;23.70;;;;;;;7.05;69.53;103013.31;5035291;28;20041;-58
2022/03/26 01:48:53;;;;;;;48.25;24.48;;;;;;;6.91;69.74;103024.09;5035686;28;20087;-58
2022/03/26 01:51:19;;;;;;;43.42;24.15;;;;;;;6.81;70.87;103021.09;5035610;28;20467;-60
2022/03/26 01:53:48;;;;;;;44.42;24.67;;;;;;;6.69;71.13;103012.84;5035705;28;20095;-58
2022/03/26 01:56:16;;;;;;;50.25;25.35;;;;;;;6.70;71.39;103022.41;5035845;28;20087;-58
2022/03/26 01:58:42;;;;;;;43.25;24.58;;;;;;;6.66;71.41;103020.53;5034359;28;20029;-58
2022/03/26 02:01:08;;;;;;;45.90;24.77;;;;;;;6.66;71.48;103020.53;5035877;28;20401;-59
2022/03/26 02:03:33;;;;;;;48.17;24.77;;;;;;;6.71;71.37;103016.38;5035525;28;20029;-59
2022/03/26 02:05:59;;;;;;;43.97;25.55;;;;;;;6.67;71.09;103009.28;5035184;28;20037;-59
2022/03/26 02:08:24;;;;;;;45.40;25.30;;;;;;;6.69;71.23;103005.03;5035290;28;20037;-59
2022/03/26 02:10:50;;;;;;;46.13;24.80;;;;;;;6.68;71.23;103018.88;5035666;28;20396;-58
2022/03/26 02:13:16;;;;;;;48.92;24.75;;;;;;;6.69;71.13;103013.72;5035533;28;20372;-59
2022/03/26 02:15:41;;;;;;;44.15;24.75;;;;;;;6.68;71.85;103011.94;5035279;28;20030;-59
2022/03/26 02:18:06;;;;;;;43.97;25.27;;;;;;;6.67;71.47;103014.50;5034988;28;20041;-58
2022/03/26 02:20:32;;;;;;;48.05;24.08;;;;;;;6.59;71.61;102995.97;5034974;28;20042;-59
2022/03/26 02:22:57;;;;;;;44.90;24.73;;;;;;;6.66;71.92;103018.81;5034672;28;20029;-58
2022/03/26 02:25:22;;;;;;;42.67;24.50;;;;;;;6.66;71.16;103010.13;5035690;28;20048;-59
2022/03/26 02:27:48;;;;;;;46.58;25.05;;;;;;;6.60;71.76;103011.66;5035395;28;20041;-59
2022/03/26 02:30:13;;;;;;;46.92;24.88;;;;;;;6.57;71.88;103008.97;5034922;28;20037;-58
2022/03/26 02:32:39;;;;;;;43.05;24.10;;;;;;;6.64;71.63;103003.16;5035113;28;20408;-59
2022/03/26 02:35:05;;;;;;;42.22;23.98;;;;;;;6.61;72.07;103009.94;5035295;28;20079;-59
2022/03/26 02:37:32;;;;;;;44.75;23.92;;;;;;;6.55;71.63;103008.03;5035204;28;20056;-58
2022/03/26 02:39:58;;;;;;;46.90;24.50;;;;;;;6.45;72.57;103015.38;5035104;28;20091;-58
2022/03/26 02:42:24;;;;;;;45.97;24.27;;;;;;;6.43;72.57;103010.13;5034821;28;20068;-59
2022/03/26 02:44:50;;;;;;;48.10;25.27;;;;;;;6.38;72.96;103009.09;5034729;28;20500;-58
2022/03/26 02:47:15;;;;;;;52.00;24.67;;;;;;;6.34;72.15;103006.31;5034803;28;20056;-58
2022/03/26 02:49:41;;;;;;;47.15;24.73;;;;;;;6.33;73.58;103009.72;5035191;28;20065;-58
2022/03/26 02:52:07;;;;;;;42.63;23.83;;;;;;;6.28;73.34;103007.84;5034825;28;20112;-58
2022/03/26 02:54:32;;;;;;;49.67;24.88;;;;;;;6.29;73.98;103013.91;5034799;28;20112;-59
2022/03/26 02:56:57;;;;;;;44.70;23.27;;;;;;;6.31;73.41;103008.78;5035207;28;20326;-59
2022/03/26 02:59:23;;;;;;;42.50;24.40;;;;;;;6.30;73.47;103015.69;5034664;28;20029;-58
2022/03/26 03:01:50;;;;;;;42.58;24.20;;;;;;;6.20;73.57;102998.88;5034653;28;20034;-59
2022/03/26 03:04:16;;;;;;;44.88;24.15;;;;;;;6.23;73.80;103004.16;5034744;28;20083;-58
2022/03/26 03:06:41;;;;;;;39.78;23.35;;;;;;;6.26;73.48;103004.28;5034465;28;20029;-58
2022/03/26 03:09:07;;;;;;;45.65;23.27;;;;;;;6.26;73.63;103008.59;5034823;28;20052;-58
2022/03/26 03:11:33;;;;;;;44.13;23.63;;;;;;;6.11;73.71;103015.78;5034861;28;20121;-59
2022/03/26 03:13:59;;;;;;;50.33;24.35;;;;;;;6.12;73.65;103005.47;5034527;28;20056;-58
2022/03/26 03:16:24;;;;;;;45.95;23.58;;;;;;;6.16;73.69;103014.28;5034634;28;20441;-59
2022/03/26 03:18:50;;;;;;;44.60;23.88;;;;;;;6.10;73.68;103014.03;5034520;28;20467;-59
2022/03/26 03:21:16;;;;;;;46.58;24.00;;;;;;;6.03;74.31;103019.81;5034491;28;20404;-58
2022/03/26 03:23:41;;;;;;;47.35;24.05;;;;;;;6.02;74.10;103007.66;5034716;28;20048;-58
2022/03/26 03:26:06;;;;;;;45.15;23.77;;;;;;;6.07;74.07;103013.88;5034591;28;20025;-59
2022/03/26 03:28:32;;;;;;;45.45;24.00;;;;;;;6.02;74.25;103013.72;5034533;28;20179;-58
2022/03/26 03:30:57;;;;;;;51.05;24.83;;;;;;;5.92;74.05;103006.38;5034424;28;20345;-58
2022/03/26 03:33:22;;;;;;;43.60;24.00;;;;;;;5.90;74.65;103019.31;5036585;28;20034;-58
2022/03/26 03:35:48;;;;;;;45.53;24.13;;;;;;;5.89;74.40;103004.53;5038296;28;20029;-58
2022/03/26 03:38:13;;;;;;;42.67;23.77;;;;;;;5.83;74.40;103008.59;5038776;28;20424;-58
2022/03/26 03:40:38;;;;;;;47.17;24.42;;;;;;;5.83;74.76;103008.59;5038410;28;20104;-58
2022/03/26 03:43:04;;;;;;;46.45;25.00;;;;;;;5.75;74.35;103003.06;5038083;28;20441;-58
2022/03/26 03:45:30;;;;;;;49.90;25.20;;;;;;;5.70;75.11;103011.50;5037679;28;20033;-58
2022/03/26 03:47:55;;;;;;;45.60;25.05;;;;;;;5.66;75.26;103007.91;5038011;28;20041;-58
2022/03/26 03:50:20;;;;;;;44.60;24.45;;;;;;;5.74;75.41;103011.69;5038004;28;20033;-59
2022/03/26 03:52:46;;;;;;;43.95;23.08;;;;;;;5.75;75.39;103017.75;5038197;28;20030;-58
2022/03/26 03:55:11;;;;;;;42.17;22.85;;;;;;;5.67;75.04;103009.66;5037998;28;20033;-58
2022/03/26 03:57:44;;;;;;;48.53;24.50;;;;;;;5.62;75.44;103021.56;5037813;28;20091;-58
2022/03/26 04:00:11;;;;;;;49.90;23.52;;;;;;;5.58;76.14;103030.94;5038013;28;20048;-59
2022/03/26 04:02:37;;;;;;;46.03;24.13;;;;;;;5.63;75.45;103032.84;5037589;28;20352;-58
2022/03/26 04:05:02;;;;;;;45.60;23.77;;;;;;;5.57;76.15;103025.69;5037932;28;20117;-58
2022/03/26 04:07:27;;;;;;;49.85;24.70;;;;;;;5.52;76.16;103033.28;5037967;28;20111;-58
2022/03/26 04:09:53;;;;;;;47.70;24.63;;;;;;;5.41;76.22;103018.06;5038005;28;20060;-58
2022/03/26 04:12:18;;;;;;;45.15;24.08;;;;;;;5.47;76.22;103036.50;5037668;28;20108;-59
2022/03/26 04:14:44;;;;;;;48.80;26.10;;;;;;;5.41;76.41;103029.34;5037805;28;20103;-59
2022/03/26 04:17:11;;;;;;;46.17;24.05;;;;;;;5.33;77.21;103037.63;5037708;28;20061;-58
2022/03/26 04:19:36;;;;;;;47.38;24.52;;;;;;;5.37;76.98;103029.16;5037434;28;20040;-59
2022/03/26 04:22:02;;;;;;;52.10;25.08;;;;;;;5.39;76.96;103035.28;5036992;28;20050;-58
2022/03/26 04:24:27;;;;;;;47.00;24.88;;;;;;;5.39;77.15;103030.09;5037980;28;20106;-58
2022/03/26 04:26:53;;;;;;;46.97;23.98;;;;;;;5.40;76.98;103031.88;5037390;28;20478;-58
2022/03/26 04:29:19;;;;;;;48.08;24.17;;;;;;;5.40;76.74;103031.88;5037074;28;20037;-59
2022/03/26 04:31:45;;;;;;;45.45;24.63;;;;;;;5.40;76.61;103032.75;5037007;28;20029;-59
2022/03/26 04:34:11;;;;;;;43.65;23.95;;;;;;;5.41;76.42;103020.66;5037255;28;20179;-58
2022/03/26 04:36:36;;;;;;;46.35;24.42;;;;;;;5.32;76.83;103018.56;5036905;28;20053;-58
2022/03/26 04:39:02;;;;;;;46.40;25.05;;;;;;;5.36;76.75;103032.59;5037224;28;20124;-58
2022/03/26 04:41:28;;;;;;;49.03;24.40;;;;;;;5.36;76.31;103029.97;5037761;28;20029;-57
2022/03/26 04:43:54;;;;;;;41.10;22.98;;;;;;;5.29;76.63;103028.81;5036106;28;20029;-59
2022/03/26 04:46:19;;;;;;;55.05;24.08;;;;;;;5.16;76.49;103019.63;5037030;28;20030;-58
2022/03/26 04:48:46;;;;;;;45.60;24.45;;;;;;;5.21;76.61;103019.78;5036953;28;20034;-58
2022/03/26 04:51:14;;;;;;;42.92;24.33;;;;;;;5.20;76.97;103024.09;5037229;28;20029;-59
2022/03/26 04:53:39;;;;;;;47.42;24.10;;;;;;;5.18;76.74;103025.78;5036976;28;20108;-58
2022/03/26 04:56:05;;;;;;;41.05;23.25;;;;;;;5.22;76.74;103027.66;5036719;28;20501;-59
2022/03/26 04:58:30;;;;;;;41.70;23.48;;;;;;;5.24;76.77;103028.63;5036502;28;20068;-58
2022/03/26 05:00:55;;;;;;;43.30;23.45;;;;;;;5.20;76.41;103023.22;5035804;28;20041;-58
2022/03/26 05:03:21;;;;;;;44.95;23.35;;;;;;;5.12;77.22;103024.59;5036524;28;20037;-58
2022/03/26 05:05:46;;;;;;;42.97;23.23;;;;;;;5.10;77.15;103028.84;5036483;28;20030;-58
2022/03/26 05:08:11;;;;;;;48.58;24.27;;;;;;;5.09;77.53;103016.69;5036749;28;20515;-58
2022/03/26 05:10:36;;;;;;;45.42;23.65;;;;;;;5.12;77.57;103022.91;5036805;28;20029;-59
2022/03/26 05:13:02;;;;;;;44.05;23.55;;;;;;;5.06;77.41;103019.13;5036994;28;20037;-59
2022/03/26 05:15:27;;;;;;;45.65;23.95;;;;;;;5.05;77.74;103026.03;5036485;28;20029;-58
2022/03/26 05:17:53;;;;;;;41.15;24.17;;;;;;;5.06;77.66;103026.91;5036032;28;20125;-58
2022/03/26 05:20:19;;;;;;;48.97;23.83;;;;;;;4.97;77.99;103019.63;5036541;28;20076;-58
2022/03/26 05:22:46;;;;;;;50.20;24.25;;;;;;;4.94;78.09;103037.66;5035502;28;20067;-58
2022/03/26 05:25:13;;;;;;;46.88;24.52;;;;;;;4.86;78.76;103036.41;5036130;28;20098;-58
2022/03/26 05:27:43;;;;;;;46.78;24.65;;;;;;;4.80;78.48;103039.63;5036580;28;20033;-59
2022/03/26 05:30:09;;;;;;;48.05;24.52;;;;;;;4.82;78.76;103034.53;5035989;28;20140;-59
2022/03/26 05:32:34;;;;;;;47.60;24.15;;;;;;;4.81;78.53;103037.94;5036174;28;20029;-58
2022/03/26 05:35:00;;;;;;;45.95;23.67;;;;;;;4.80;79.34;103050.00;5036172;28;20140;-59
2022/03/26 05:37:25;;;;;;;50.88;24.15;;;;;;;4.83;78.82;103054.44;5036199;28;20048;-58
2022/03/26 05:39:50;;;;;;;49.63;23.77;;;;;;;4.79;78.85;103048.22;5035962;28;20040;-58
2022/03/26 05:42:16;;;;;;;51.17;25.02;;;;;;;4.83;78.67;103049.25;5035870;28;20040;-58
2022/03/26 05:44:41;;;;;;;47.97;24.42;;;;;;;4.86;79.17;103055.44;5035650;28;20029;-58
2022/03/26 05:47:07;;;;;;;45.33;24.15;;;;;;;4.84;79.09;103051.03;5035511;28;20416;-58
2022/03/26 05:49:33;;;;;;;50.80;25.40;;;;;;;4.85;79.46;103055.38;5034936;28;20033;-58
2022/03/26 05:51:58;;;;;;;46.75;24.90;;;;;;;4.86;79.38;103054.56;5035945;28;20057;-58
2022/03/26 05:54:24;;;;;;;53.60;25.27;;;;;;;4.90;78.86;103067.75;5035636;28;20033;-59
2022/03/26 05:56:52;;;;;;;52.05;26.98;;;;;;;4.92;78.99;103064.34;5035456;28;20033;-59
2022/03/26 05:59:23;;;;;;;46.95;25.70;;;;;;;4.92;79.13;103053.97;5035988;28;20352;-58
2022/03/26 06:01:49;;;;;;;47.05;23.40;;;;;;;4.99;78.90;103069.00;5035707;28;20048;-59
2022/03/26 06:04:16;;;;;;;50.45;25.40;;;;;;;5.08;78.73;103078.06;5035786;28;20033;-59
2022/03/26 06:06:41;;;;;;;50.63;25.33;;;;;;;5.17;78.62;103081.09;5035068;28;20037;-58
2022/03/26 06:09:07;;;;;;;47.38;24.73;;;;;;;5.24;78.87;103084.81;5034198;28;20128;-58
2022/03/26 06:11:32;;;;;;;47.78;24.65;;;;;;;5.34;78.75;103079.25;5035600;28;20037;-59
2022/03/26 06:13:58;;;;;;;45.90;24.77;;;;;;;5.50;78.41;103080.78;5035504;28;20044;-59
2022/03/26 06:16:23;;;;;;;48.25;24.17;;;;;;;5.54;78.45;103074.91;5033386;28;20409;-59
2022/03/26 06:18:48;;;;;;;47.85;24.17;;;;;;;5.63;78.32;103079.59;5032902;28;20135;-58
2022/03/26 06:21:14;;;;;;;48.33;24.48;;;;;;;5.64;78.72;103082.25;5035177;28;20128;-58
2022/03/26 06:23:39;;;;;;;53.05;24.52;;;;;;;5.77;78.33;103075.88;5050256;28;20082;-58
2022/03/26 06:26:05;;;;;;;48.72;24.05;;;;;;;5.88;78.79;103078.16;5055089;28;20416;-58
2022/03/26 06:28:30;;;;;;;52.08;24.38;;;;;;;6.24;77.25;103080.44;5055181;28;20029;-59
2022/03/26 06:30:55;;;;;;;48.53;24.33;;;;;;;6.95;74.36;103071.94;5055165;28;20501;-59
2022/03/26 06:33:22;;;;;;;48.10;23.80;;;;;;;7.49;72.90;103074.75;5055191;28;20029;-58
2022/03/26 06:35:48;;;;;;;44.30;23.42;;;;;;;7.94;70.56;103078.06;5055226;28;20471;-58
2022/03/26 06:38:13;;;;;;;43.08;23.58;;;;;;;8.31;70.13;103073.16;5055141;28;20033;-59
2022/03/26 06:40:39;;;;;;;41.05;22.58;;;;;;;8.63;68.48;103076.84;5054786;28;20036;-59
2022/03/26 06:43:07;;;;;;;46.55;24.35;;;;;;;8.87;67.50;103078.38;5055334;28;20048;-59
2022/03/26 06:45:33;;;;;;;47.72;23.52;;;;;;;8.97;66.62;103083.94;5055430;28;20025;-60
2022/03/26 06:47:58;;;;;;;42.10;24.15;;;;;;;9.14;65.73;103088.75;5054953;28;20045;-59
2022/03/26 06:50:24;;;;;;;47.00;24.90;;;;;;;9.26;65.37;103086.47;5054977;28;20407;-59
2022/03/26 06:52:50;;;;;;;47.38;23.65;;;;;;;9.18;65.80;103083.63;5054993;28;20060;-59
2022/03/26 06:55:15;;;;;;;48.13;25.55;;;;;;;9.16;65.87;103092.31;5054396;28;20065;-59
2022/03/26 06:57:43;;;;;;;45.10;24.90;;;;;;;9.19;66.03;103094.97;5054760;28;20028;-58
2022/03/26 07:00:09;;;;;;;47.10;24.83;;;;;;;9.05;66.27;103090.25;5054770;28;20087;-60
2022/03/26 07:02:36;;;;;;;48.92;24.65;;;;;;;9.08;66.63;103085.13;5054765;28;20060;-58
2022/03/26 07:05:02;;;;;;;44.72;24.25;;;;;;;9.29;66.58;103095.28;5054756;28;20033;-59
2022/03/26 07:07:27;;;;;;;44.30;24.08;;;;;;;9.56;66.04;103095.16;5055191;28;20033;-58
2022/03/26 07:09:52;;;;;;;44.97;24.08;;;;;;;9.71;65.13;103097.28;5058745;28;20036;-59
2022/03/26 07:12:18;;;;;;;46.38;24.02;;;;;;;9.77;63.63;103100.94;5058529;28;20437;-59
2022/03/26 07:14:44;;;;;;;41.95;24.27;;;;;;;9.75;63.82;103086.06;5058836;28;20035;-59
2022/03/26 07:17:09;;;;;;;48.30;25.27;;;;;;;9.85;63.83;103098.53;5058641;28;20416;-59
2022/03/26 07:19:34;;;;;;;47.28;25.20;;;;;;;9.96;63.09;103099.69;5058765;28;20467;-59
2022/03/26 07:22:00;;;;;;;43.80;24.50;;;;;;;10.11;63.67;103096.56;5057736;28;20052;-59
2022/03/26 07:24:25;;;;;;;46.40;23.90;;;;;;;10.10;63.25;103092.19;5058293;28;20455;-60
2022/03/26 07:26:51;;;;;;;45.20;24.50;;;;;;;10.21;62.93;103093.38;5058137;28;20053;-62
2022/03/26 07:29:17;;;;;;;45.97;25.40;;;;;;;10.33;62.71;103092.78;5058428;28;20029;-58
2022/03/26 07:31:42;;;;;;;45.45;25.48;;;;;;;10.29;62.60;103094.44;5058278;28;20107;-53
2022/03/26 07:34:07;;;;;;;49.45;23.90;;;;;;;10.27;62.06;103095.25;5058348;28;20029;-54
2022/03/26 07:36:33;;;;;;;47.30;25.48;;;;;;;10.45;61.47;103101.78;5058325;28;20036;-59
2022/03/26 07:38:58;;;;;;;43.38;24.13;;;;;;;10.50;61.43;103091.44;5058436;28;20025;-59
2022/03/26 07:41:24;;;;;;;50.45;25.98;;;;;;;10.66;62.17;103097.91;5058329;28;20115;-59
2022/03/26 07:43:49;;;;;;;47.60;23.67;;;;;;;10.84;61.29;103102.66;5058380;28;20040;-58
2022/03/26 07:46:18;;;;;;;45.72;23.65;;;;;;;10.99;61.16;103106.50;5057751;28;20044;-59
2022/03/26 07:48:44;;;;;;;46.58;25.30;;;;;;;11.08;61.01;103111.91;5058180;28;20040;-60
2022/03/26 07:51:10;;;;;;;45.15;24.48;;;;;;;11.22;60.19;103116.56;5058284;28;20044;-60
2022/03/26 07:53:35;;;;;;;43.60;24.70;;;;;;;11.20;60.23;103107.78;5050730;28;20483;-53
2022/03/26 07:56:01;;;;;;;44.70;23.83;;;;;;;11.22;60.22;103116.56;5038012;28;20425;-54
2022/03/26 07:58:26;;;;;;;47.55;25.05;;;;;;;11.27;60.41;103107.91;5038182;28;20411;-60
2022/03/26 08:00:51;;;;;;;43.22;23.17;;;;;;;11.33;59.46;103112.41;5038213;28;20026;-58
2022/03/26 08:03:17;;;;;;;43.10;23.02;;;;;;;11.61;58.65;103112.06;5038027;28;20033;-59
2022/03/26 08:05:42;;;;;;;41.33;23.17;;;;;;;11.83;58.09;103109.03;5037796;28;20025;-59
2022/03/26 08:08:07;;;;;;;41.67;23.33;;;;;;;12.15;57.52;103114.81;5037941;28;20330;-58
2022/03/26 08:10:33;;;;;;;43.40;23.13;;;;;;;12.27;56.39;103103.66;5037411;28;20060;-58
2022/03/26 08:12:58;;;;;;;39.58;22.08;;;;;;;12.41;56.16;103106.50;5037436;28;20064;-58
2022/03/26 08:15:23;;;;;;;41.92;22.10;;;;;;;12.71;55.86;103106.94;5037455;28;20352;-59
2022/03/26 08:17:48;;;;;;;39.22;22.23;;;;;;;13.19;54.50;103108.44;5037196;28;20069;-58
2022/03/26 08:20:14;;;;;;;37.03;21.90;;;;;;;13.66;53.29;103105.50;5035552;28;20132;-58
2022/03/26 08:22:41;;;;;;;41.15;22.30;;;;;;;14.06;52.41;103104.06;5036709;28;20029;-58
2022/03/26 08:25:09;;;;;;;44.20;21.83;;;;;;;14.45;51.16;103106.19;5036978;28;20033;-59
2022/03/26 08:27:35;;;;;;;37.85;21.60;;;;;;;14.90;49.79;103103.78;5036628;28;20040;-59
2022/03/26 08:30:01;;;;;;;35.45;19.92;;;;;;;15.39;48.14;103101.38;5037185;28;20033;-58
2022/03/26 08:32:26;;;;;;;38.13;20.17;;;;;;;15.87;46.73;103111.16;5036802;28;20376;-59
2022/03/26 08:34:51;;;;;;;43.08;21.70;;;;;;;16.47;45.40;103104.06;5036628;28;20558;-58
2022/03/26 08:37:17;;;;;;;40.10;21.17;;;;;;;17.19;44.41;103099.47;5036506;28;20037;-58
2022/03/26 08:39:42;;;;;;;41.35;22.27;;;;;;;17.50;43.35;103105.44;5036703;28;20103;-59
2022/03/26 08:42:08;;;;;;;39.38;20.60;;;;;;;17.92;42.02;103111.41;5037204;28;20037;-59
2022/03/26 08:44:33;;;;;;;39.22;20.63;;;;;;;17.54;42.47;103112.50;5036998;28;20121;-58
2022/03/26 08:47:02;;;;;;;39.65;20.67;;;;;;;17.44;43.26;103113.44;5036671;28;20040;-59
2022/03/26 08:49:28;;;;;;;39.95;21.15;;;;;;;17.52;42.93;103118.69;5036644;28;20029;-59
2022/03/26 08:51:54;;;;;;;35.53;20.80;;;;;;;16.90;43.66;103110.16;5036391;28;20113;-59
2022/03/26 08:54:19;;;;;;;36.75;21.25;;;;;;;16.25;45.95;103115.56;5036846;28;20411;-59
2022/03/26 08:56:44;;;;;;;38.05;20.92;;;;;;;16.01;46.55;103124.38;5036559;28;20068;-59
2022/03/26 08:59:10;;;;;;;37.20;20.42;;;;;;;15.88;46.83;103126.13;5036684;28;20025;-59
2022/03/26 09:01:35;;;;;;;39.75;21.23;;;;;;;15.50;47.01;103123.38;5036676;28;20029;-59
2022/03/26 09:04:01;;;;;;;37.80;21.75;;;;;;;15.10;47.95;103119.72;5036932;28;20030;-59
2022/03/26 09:06:26;;;;;;;38.22;22.35;;;;;;;14.93;49.35;103124.91;5036405;28;20421;-59
2022/03/26 09:08:51;;;;;;;38.83;22.40;;;;;;;15.09;49.54;103119.69;5036544;28;20029;-58
2022/03/26 09:11:17;;;;;;;41.30;22.05;;;;;;;15.25;49.38;103130.31;5036133;28;20033;-59
2022/03/26 09:13:43;;;;;;;37.60;22.67;;;;;;;15.15;48.58;103127.66;5036295;28;20026;-59
2022/03/26 09:16:08;;;;;;;39.05;22.92;;;;;;;15.19;49.29;103132.94;5036152;28;20040;-59
2022/03/26 09:18:34;;;;;;;41.17;23.00;;;;;;;15.25;49.21;103132.06;5035980;28;20477;-58
2022/03/26 09:20:59;;;;;;;42.45;22.63;;;;;;;15.30;48.87;103120.66;5036045;28;20049;-59
2022/03/26 09:23:24;;;;;;;38.17;21.63;;;;;;;15.41;48.24;103131.25;5036095;28;20022;-58
2022/03/26 09:25:50;;;;;;;37.55;22.63;;;;;;;15.37;48.44;103129.50;5036203;28;20091;-59
2022/03/26 09:28:15;;;;;;;37.00;21.92;;;;;;;15.38;49.09;103139.19;5036388;28;20108;-59
2022/03/26 09:30:40;;;;;;;41.83;23.10;;;;;;;15.60;48.50;103141.00;5035360;28;20037;-58
2022/03/26 09:33:06;;;;;;;42.03;23.05;;;;;;;15.74;48.39;103143.72;5035571;28;20038;-59
2022/03/26 09:35:31;;;;;;;44.60;23.80;;;;;;;15.89;47.63;103140.22;5035959;28;20429;-59
2022/03/26 09:37:57;;;;;;;44.70;25.17;;;;;;;15.87;47.06;103121.72;5036594;28;20113;-59
2022/03/26 09:40:23;;;;;;;41.50;23.75;;;;;;;15.81;47.16;103134.91;5036285;28;20456;-59
2022/03/26 09:42:49;;;;;;;38.53;22.65;;;;;;;16.06;47.37;103133.19;5036068;28;20415;-59
2022/03/26 09:45:15;;;;;;;39.35;22.30;;;;;;;16.15;46.84;103134.94;5035827;28;20029;-59
2022/03/26 09:47:40;;;;;;;36.22;22.02;;;;;;;16.25;46.54;103118.22;5036142;28;20348;-59
2022/03/26 09:50:07;;;;;;;40.25;22.48;;;;;;;16.45;46.65;103116.41;5036029;28;20033;-59
2022/03/26 09:52:34;;;;;;;36.47;22.45;;;;;;;16.52;45.65;103118.16;5035900;28;20064;-58
2022/03/26 09:54:59;;;;;;;37.88;22.15;;;;;;;16.67;45.07;103120.81;5035886;28;20052;-58
2022/03/26 09:57:25;;;;;;;37.60;21.23;;;;;;;16.62;44.96;103101.38;5035878;28;20432;-58
2022/03/26 09:59:50;;;;;;;36.42;23.23;;;;;;;16.75;44.66;103112.88;5035360;28;20029;-59
2022/03/26 10:02:16;;;;;;;40.20;25.33;;;;;;;16.76;44.32;103119.91;5035535;28;20108;-58
2022/03/26 10:04:43;;;;;;;43.40;25.98;;;;;;;16.75;44.85;103114.63;5034838;28;20052;-59
2022/03/26 10:07:08;;;;;;;43.53;24.67;;;;;;;16.88;44.61;103119.00;5035002;28;20425;-58
2022/03/26 10:09:36;;;;;;;46.75;27.05;;;;;;;17.02;43.81;103123.34;5035226;28;20043;-59
2022/03/26 10:12:06;;;;;;;41.72;23.25;;;;;;;16.95;43.92;103120.75;5035556;28;20407;-59
2022/03/26 10:14:44;;;;;;;35.10;22.48;;;;;;;16.90;45.34;103111.94;5035074;28;20049;-59
2022/03/26 10:17:31;;;;;;;39.35;21.75;;;;;;;16.98;43.64;103118.94;5034849;28;20143;-60
2022/03/26 10:20:05;;;;;;;34.55;19.83;;;;;;;17.10;43.80;103122.44;5035240;28;20041;-58
2022/03/26 10:22:33;;;;;;;30.30;19.08;;;;;;;17.25;43.86;103119.72;5035195;28;20036;-58
2022/03/26 10:25:00;;;;;;;33.65;19.73;;;;;;;17.38;43.38;103108.19;5034772;28;20034;-59
2022/03/26 10:27:26;;;;;;;36.42;20.05;;;;;;;17.33;42.89;103105.56;5035130;28;20037;-59
2022/03/26 10:29:56;;;;;;;32.70;18.40;;;;;;;17.13;42.65;103112.72;5034684;28;20112;-58
2022/03/26 10:32:39;;;;;;;29.67;17.05;;;;;;;17.20;42.25;103106.50;5035348;28;20112;-59
2022/03/26 10:35:08;;;;;;;31.48;17.55;;;;;;;17.16;40.98;103111.81;5034985;28;20373;-58
2022/03/26 10:38:03;;;;;;;31.23;17.33;;;;;;;17.17;41.68;103119.75;5034745;28;20041;-59
2022/03/26 10:40:37;;;;;;;31.48;16.90;;;;;;;17.37;40.68;103102.00;5034832;28;20326;-59
2022/03/26 10:43:02;;;;;;;31.58;18.20;;;;;;;17.35;41.07;103102.91;5034195;28;20079;-59
2022/03/26 10:45:29;;;;;;;33.93;18.07;;;;;;;17.57;40.49;103104.53;5034367;28;20045;-58
2022/03/26 10:47:57;;;;;;;29.77;17.50;;;;;;;17.65;40.19;103105.41;5034898;28;20347;-58
2022/03/26 10:50:23;;;;;;;33.03;17.98;;;;;;;17.68;38.86;103108.03;5035058;28;20056;-58
2022/03/26 10:52:52;;;;;;;33.58;18.13;;;;;;;17.69;39.44;103100.97;5034753;28;20025;-58
2022/03/26 10:55:18;;;;;;;33.00;17.52;;;;;;;17.74;39.22;103105.34;5034537;28;20030;-58
2022/03/26 10:57:46;;;;;;;28.58;16.60;;;;;;;17.64;38.77;103101.00;5034802;28;20129;-58
2022/03/26 11:00:13;;;;;;;28.52;15.10;;;;;;;17.61;38.38;103103.63;5034877;28;20033;-58
2022/03/26 11:02:38;;;;;;;28.30;15.05;;;;;;;17.68;38.05;103102.72;5034692;28;20342;-59
2022/03/26 11:05:05;;;;;;;29.52;14.65;;;;;;;17.73;37.55;103078.88;5035035;28;20036;-59
2022/03/26 11:07:31;;;;;;;30.30;15.45;;;;;;;17.88;38.05;103091.97;5034776;28;20025;-59
2022/03/26 11:09:57;;;;;;;22.10;13.00;;;;;;;17.90;37.27;103099.91;5034761;28;20033;-58